Time;durP1;ratioP1;P1;durP2;ratioP2;P2;SDS_P1;SDS_P2;PMS_P1;PMS_P2;Temp;Humidity;BMP_temperature;BMP_pressure;BME280_temperature;BME280_humidity;BME280_pressure;Samples;Min_cycle;Max_cycle;Signal;HPM_P1;HPM_P2
2022/06/07 00:01:42;;;;;;;6.93;6.30;;;16.10;99.90;;;;;;5160691;28;20225;-56
2022/06/07 00:04:12;;;;;;;8.03;6.63;;;16.00;99.90;;;;;;5160676;28;20626;-57
2022/06/07 00:06:43;;;;;;;8.03;6.80;;;16.00;99.90;;;;;;5162437;28;20407;-57
2022/06/07 00:09:13;;;;;;;9.73;6.43;;;16.00;99.90;;;;;;5153006;28;20272;-57
2022/06/07 00:11:44;;;;;;;9.40;7.30;;;16.00;99.90;;;;;;5163565;28;20185;-57
2022/06/07 00:14:15;;;;;;;6.47;5.87;;;16.00;99.90;;;;;;5161344;28;20239;-56
2022/06/07 00:16:46;;;;;;;7.57;6.07;;;16.00;99.90;;;;;;5153123;28;20605;-56
2022/06/07 00:19:16;;;;;;;7.13;5.57;;;16.00;99.90;;;;;;5161259;28;20481;-57
2022/06/07 00:21:47;;;;;;;8.40;7.30;;;15.90;99.90;;;;;;5158293;28;20527;-56
2022/06/07 00:24:19;;;;;;;5.87;5.47;;;15.90;99.90;;;;;;5164410;28;20181;-56
2022/06/07 00:26:50;;;;;;;7.90;6.93;;;15.90;99.90;;;;;;5152774;28;20260;-59
2022/06/07 00:29:23;;;;;;;12.33;7.37;;;15.90;99.90;;;;;;5164019;28;20460;-57
2022/06/07 00:31:54;;;;;;;7.43;6.70;;;15.90;99.90;;;;;;5161145;28;20464;-57
2022/06/07 00:34:25;;;;;;;7.90;7.07;;;15.80;99.90;;;;;;5161806;28;20416;-57
2022/06/07 00:36:56;;;;;;;11.17;8.37;;;15.80;99.90;;;;;;5145433;28;20440;-57
2022/06/07 00:39:26;;;;;;;12.33;8.07;;;15.80;99.90;;;;;;5157929;28;20184;-57
2022/06/07 00:41:57;;;;;;;7.43;6.77;;;15.80;99.90;;;;;;5164066;28;20708;-57
2022/06/07 00:44:37;;;;;;;8.07;7.27;;;15.80;99.90;;;;;;5151254;28;20243;-57
2022/06/07 00:47:12;;;;;;;9.90;6.60;;;15.80;99.90;;;;;;5158699;28;20189;-57
2022/06/07 00:49:47;;;;;;;8.40;7.20;;;15.70;99.90;;;;;;5161295;28;20429;-56
2022/06/07 00:52:20;;;;;;;6.83;6.20;;;15.70;99.90;;;;;;5159800;28;20468;-55
2022/06/07 00:54:51;;;;;;;6.70;6.10;;;15.70;99.90;;;;;;5156810;28;20504;-55
2022/06/07 00:57:23;;;;;;;9.00;6.03;;;15.70;99.90;;;;;;5163539;28;20875;-56
2022/06/07 00:59:54;;;;;;;6.93;6.00;;;15.70;99.90;;;;;;5154430;28;20212;-57
2022/06/07 01:02:25;;;;;;;7.27;6.67;;;15.70;99.90;;;;;;5161478;28;20424;-56
2022/06/07 01:04:55;;;;;;;5.93;5.43;;;15.60;99.90;;;;;;5154113;28;20996;-57
2022/06/07 01:13:05;;;;;;;6.70;6.10;;;15.60;99.90;;;;;;5156275;28;20475;-55
2022/06/07 01:15:36;;;;;;;5.90;5.50;;;15.60;99.90;;;;;;5160086;28;20433;-57
2022/06/07 01:18:06;;;;;;;6.17;5.57;;;15.60;99.90;;;;;;5155943;28;20546;-57
2022/06/07 01:20:37;;;;;;;9.03;6.67;;;15.60;99.90;;;;;;5159634;28;20185;-57
2022/06/07 01:23:08;;;;;;;5.73;5.23;;;15.60;99.90;;;;;;5157913;28;20193;-57
2022/06/07 01:25:40;;;;;;;5.93;5.50;;;15.60;99.90;;;;;;5159432;28;20268;-56
2022/06/07 01:28:10;;;;;;;8.73;5.10;;;15.60;99.90;;;;;;5157901;28;20443;-56
2022/06/07 01:30:41;;;;;;;7.87;5.77;;;15.60;99.90;;;;;;5162071;28;20442;-56
2022/06/07 01:33:11;;;;;;;7.70;5.90;;;15.50;99.90;;;;;;5162648;28;20303;-57
2022/06/07 01:35:45;;;;;;;6.27;5.87;;;15.50;99.90;;;;;;5153211;28;20181;-56
2022/06/07 01:38:16;;;;;;;6.00;5.50;;;15.40;99.90;;;;;;5160227;28;20213;-56
2022/06/07 01:43:39;;;;;;;6.43;5.87;;;15.40;99.90;;;;;;5161458;28;20529;-56
2022/06/07 01:46:10;;;;;;;6.80;6.10;;;15.40;99.90;;;;;;5159810;28;20420;-57
2022/06/07 01:48:41;;;;;;;6.53;5.93;;;15.40;99.90;;;;;;5163449;28;20226;-56
2022/06/07 01:51:12;;;;;;;6.67;6.07;;;15.50;99.90;;;;;;5167574;28;20435;-57
2022/06/07 01:53:43;;;;;;;6.73;6.13;;;15.50;99.90;;;;;;5164158;28;20212;-57
2022/06/07 01:56:16;;;;;;;6.90;6.30;;;15.50;99.90;;;;;;5162229;28;20433;-57
2022/06/07 01:58:47;;;;;;;9.03;6.10;;;15.50;99.90;;;;;;5164592;28;20456;-58
2022/06/07 02:01:17;;;;;;;6.30;5.80;;;15.50;99.90;;;;;;5151864;28;20440;-56
2022/06/07 02:03:48;;;;;;;7.20;6.50;;;15.50;99.90;;;;;;5163643;28;20178;-56
2022/06/07 02:06:19;;;;;;;7.10;6.40;;;15.60;99.90;;;;;;5159404;28;20725;-56
2022/06/07 02:08:49;;;;;;;17.70;7.20;;;15.60;99.90;;;;;;5161315;28;20260;-56
2022/06/07 02:11:23;;;;;;;7.60;6.23;;;15.50;99.90;;;;;;5161210;28;20190;-56
2022/06/07 02:13:54;;;;;;;7.63;6.77;;;15.50;99.90;;;;;;5163757;28;20202;-56
2022/06/07 02:16:25;;;;;;;10.33;7.60;;;15.50;99.90;;;;;;5155165;28;20443;-57
2022/06/07 02:18:55;;;;;;;7.93;6.97;;;15.40;99.90;;;;;;5166175;28;20295;-56
2022/06/07 02:21:26;;;;;;;7.83;7.07;;;15.40;99.90;;;;;;5165984;28;20624;-57
2022/06/07 02:23:57;;;;;;;9.30;7.27;;;15.40;99.90;;;;;;5161940;28;20259;-55
2022/06/07 02:26:34;;;;;;;6.67;6.00;;;15.40;99.90;;;;;;5160253;28;20437;-56
2022/06/07 02:29:29;;;;;;;8.00;6.20;;;15.40;99.90;;;;;;5154405;28;20474;-56
2022/06/07 02:32:15;;;;;;;10.87;6.47;;;15.40;99.90;;;;;;5164511;28;20472;-56
2022/06/07 02:34:48;;;;;;;12.27;6.70;;;15.40;99.90;;;;;;5165656;28;20424;-56
2022/06/07 02:37:19;;;;;;;7.37;6.30;;;15.40;99.90;;;;;;5166477;28;20587;-57
2022/06/07 02:39:51;;;;;;;10.57;6.50;;;15.30;99.90;;;;;;5156829;28;20495;-56
2022/06/07 02:42:25;;;;;;;7.13;6.47;;;15.30;99.90;;;;;;5162026;28;20440;-56
2022/06/07 02:44:57;;;;;;;7.20;5.43;;;15.20;99.90;;;;;;5163231;28;20427;-56
2022/06/07 02:47:27;;;;;;;6.50;5.33;;;15.20;99.90;;;;;;5156258;28;20476;-56
2022/06/07 02:49:58;;;;;;;11.13;6.80;;;15.20;99.90;;;;;;5159401;28;20448;-56
2022/06/07 02:52:29;;;;;;;10.40;6.40;;;15.20;99.90;;;;;;5167707;28;20215;-57
2022/06/07 02:54:59;;;;;;;7.03;5.80;;;15.30;99.90;;;;;;5162593;28;20185;-55
2022/06/07 02:57:30;;;;;;;8.93;5.13;;;15.30;99.90;;;;;;5162139;28;20213;-55
2022/06/07 03:00:00;;;;;;;8.53;5.60;;;15.30;99.90;;;;;;5156156;28;20225;-55
2022/06/07 03:02:31;;;;;;;7.33;5.67;;;15.40;99.90;;;;;;5143807;28;20185;-56
2022/06/07 03:05:02;;;;;;;6.87;5.97;;;15.30;99.90;;;;;;5166142;28;20186;-56
2022/06/07 03:07:33;;;;;;;5.63;5.00;;;15.30;99.90;;;;;;5156043;28;20583;-55
2022/06/07 03:10:05;;;;;;;8.03;5.60;;;15.30;99.90;;;;;;5152475;28;20455;-57
2022/06/07 03:12:36;;;;;;;5.33;4.80;;;15.30;99.90;;;;;;5165467;28;20278;-56
2022/06/07 03:15:08;;;;;;;6.37;5.77;;;15.30;99.90;;;;;;5162688;28;20892;-56
2022/06/07 03:17:40;;;;;;;5.63;4.70;;;15.30;99.90;;;;;;5160881;28;20803;-57
2022/06/07 03:20:12;;;;;;;8.80;5.47;;;15.30;99.90;;;;;;5164708;28;20432;-56
2022/06/07 03:22:43;;;;;;;8.43;6.00;;;15.30;99.90;;;;;;5161688;28;20424;-55
2022/06/07 03:25:13;;;;;;;5.70;5.00;;;15.30;99.90;;;;;;5156379;28;20432;-56
2022/06/07 03:27:44;;;;;;;5.10;4.70;;;15.30;99.90;;;;;;5165008;28;20213;-55
2022/06/07 03:30:14;;;;;;;5.60;5.00;;;15.30;99.90;;;;;;5165227;28;20195;-56
2022/06/07 03:32:45;;;;;;;4.60;4.30;;;15.40;99.90;;;;;;5162396;28;20208;-57
2022/06/07 03:35:16;;;;;;;4.53;4.13;;;15.50;99.90;;;;;;5161790;28;20186;-55
2022/06/07 03:37:47;;;;;;;3.50;3.30;;;15.60;99.90;;;;;;5164847;28;20242;-55
2022/06/07 03:40:42;;;;;;;4.87;4.03;;;15.70;99.90;;;;;;5162521;28;20189;-56
2022/06/07 03:43:08;;;;;;;4.30;3.87;;;15.90;99.90;;;;;;5158588;28;20245;-55
2022/06/07 03:45:39;;;;;;;3.60;3.40;;;16.00;99.90;;;;;;5160143;28;20476;-56
2022/06/07 03:48:10;;;;;;;5.73;3.13;;;16.10;99.90;;;;;;5160421;28;20267;-56
2022/06/07 03:50:40;;;;;;;3.77;3.30;;;16.20;99.90;;;;;;5151438;28;20441;-56
2022/06/07 03:53:11;;;;;;;3.53;3.30;;;16.30;99.90;;;;;;5160005;28;20682;-56
2022/06/07 03:55:44;;;;;;;7.80;3.57;;;16.30;99.90;;;;;;5156782;28;20177;-58
2022/06/07 03:58:15;;;;;;;3.90;3.70;;;16.40;99.90;;;;;;5154429;28;20216;-56
2022/06/07 04:00:46;;;;;;;3.40;3.20;;;16.50;99.90;;;;;;5164894;28;20440;-56
2022/06/07 04:03:16;;;;;;;3.47;3.00;;;16.60;99.90;;;;;;5153684;28;20476;-56
2022/06/07 04:05:48;;;;;;;3.27;3.00;;;16.60;99.90;;;;;;5153117;28;20558;-56
2022/06/07 04:08:19;;;;;;;3.40;3.10;;;16.70;99.90;;;;;;5162135;28;20730;-55
2022/06/07 04:10:58;;;;;;;3.03;2.83;;;16.80;99.90;;;;;;5142780;28;20436;-56
2022/06/07 04:13:30;;;;;;;3.33;3.03;;;16.80;99.90;;;;;;5161342;28;20459;-55
2022/06/07 04:16:06;;;;;;;3.50;3.20;;;16.70;99.90;;;;;;5162082;28;20436;-57
2022/06/07 04:18:37;;;;;;;3.17;2.83;;;16.70;99.90;;;;;;5162013;28;20983;-56
2022/06/07 04:21:07;;;;;;;2.90;2.80;;;16.70;99.90;;;;;;5159286;28;20539;-56
2022/06/07 04:23:38;;;;;;;3.37;3.00;;;16.60;99.90;;;;;;5158974;28;20196;-57
2022/06/07 04:26:12;;;;;;;2.90;2.77;;;16.60;99.90;;;;;;5162523;28;20438;-57
2022/06/07 04:28:43;;;;;;;2.33;2.23;;;16.60;99.90;;;;;;5161098;28;20590;-57
2022/06/07 04:31:20;;;;;;;6.33;3.57;;;16.70;99.90;;;;;;5160643;28;20535;-57
2022/06/07 04:33:54;;;;;;;2.97;2.77;;;16.90;99.90;;;;;;5157421;28;20216;-56
2022/06/07 04:36:27;;;;;;;2.00;1.93;;;17.10;99.90;;;;;;5159011;28;20526;-56
2022/06/07 04:39:01;;;;;;;2.40;2.30;;;17.30;99.90;;;;;;5157864;28;20457;-56
2022/06/07 04:41:33;;;;;;;2.40;2.20;;;17.50;99.90;;;;;;5150853;28;20487;-57
2022/06/07 04:44:04;;;;;;;2.13;2.07;;;17.50;99.90;;;;;;5164159;28;20412;-56
2022/06/07 04:46:35;;;;;;;2.20;2.20;;;17.80;99.90;;;;;;5161626;28;20426;-56
2022/06/07 04:49:05;;;;;;;2.67;2.57;;;18.10;99.90;;;;;;5163526;28;20328;-57
2022/06/07 04:51:38;;;;;;;5.80;2.80;;;18.60;99.90;;;;;;5156660;28;20669;-57
2022/06/07 04:54:10;;;;;;;2.40;2.07;;;18.90;99.90;;;;;;5162870;28;20209;-58
2022/06/07 04:56:40;;;;;;;2.80;2.70;;;19.70;99.90;;;;;;5159377;28;20464;-57
2022/06/07 04:59:12;;;;;;;2.20;2.10;;;20.10;99.90;;;;;;5156021;28;20467;-56
2022/06/07 05:01:44;;;;;;;2.23;2.13;;;20.30;99.90;;;;;;5160001;28;20252;-57
2022/06/07 05:04:14;;;;;;;2.33;2.33;;;20.60;99.90;;;;;;5156965;28;20444;-55
2022/06/07 05:06:46;;;;;;;2.87;2.60;;;20.90;99.40;;;;;;5163114;28;20443;-58
2022/06/07 05:09:20;;;;;;;2.27;2.17;;;21.80;95.90;;;;;;5162119;28;20586;-56
2022/06/07 05:11:52;;;;;;;3.00;1.60;;;22.50;91.90;;;;;;5156155;28;20436;-57
2022/06/07 05:14:23;;;;;;;2.67;1.80;;;23.30;77.90;;;;;;5161802;28;21013;-56
2022/06/07 05:16:54;;;;;;;1.97;1.87;;;23.40;73.40;;;;;;5159710;28;20420;-57
2022/06/07 05:19:25;;;;;;;2.93;1.70;;;23.20;71.90;;;;;;5160805;28;20502;-57
2022/06/07 05:21:56;;;;;;;4.83;1.80;;;22.80;71.40;;;;;;5157253;28;20191;-57
2022/06/07 05:24:26;;;;;;;2.77;2.40;;;22.60;72.10;;;;;;5166772;28;20181;-57
2022/06/07 05:27:00;;;;;;;6.33;1.60;;;22.70;71.50;;;;;;5163446;28;20503;-56
2022/06/07 05:29:50;;;;;;;5.83;1.60;;;23.30;70.80;;;;;;5163385;28;20272;-57
2022/06/07 05:32:21;;;;;;;1.70;1.70;;;24.90;64.80;;;;;;5162229;28;20463;-57
2022/06/07 05:34:52;;;;;;;9.03;1.50;;;27.10;57.00;;;;;;5168811;28;20419;-58
2022/06/07 05:37:23;;;;;;;4.07;1.40;;;29.20;50.60;;;;;;5165672;28;20204;-59
2022/06/07 05:39:53;;;;;;;1.80;1.60;;;30.50;45.00;;;;;;5162430;28;20181;-57
2022/06/07 05:42:24;;;;;;;2.93;1.53;;;31.70;42.30;;;;;;5167969;28;20428;-59
2022/06/07 05:44:54;;;;;;;1.77;1.67;;;32.80;39.30;;;;;;5166802;28;20193;-59
2022/06/07 05:47:26;;;;;;;3.33;2.03;;;33.60;37.20;;;;;;5167665;28;20223;-58
2022/06/07 05:49:56;;;;;;;1.03;1.03;;;34.20;34.40;;;;;;5151492;28;20207;-57
2022/06/07 05:52:27;;;;;;;4.73;1.30;;;34.40;33.40;;;;;;5165385;28;20204;-58
2022/06/07 05:54:58;;;;;;;0.77;0.77;;;34.50;32.10;;;;;;5165622;28;20185;-59
2022/06/07 05:57:29;;;;;;;1.70;1.63;;;34.70;32.80;;;;;;5162747;28;20668;-58
2022/06/07 06:00:00;;;;;;;1.15;1.15;;;35.40;31.80;;;;;;5162110;28;20181;-60
2022/06/07 06:02:31;;;;;;;1.40;1.30;;;35.60;30.70;;;;;;5165311;28;20185;-58
2022/06/07 06:05:01;;;;;;;1.20;1.13;;;33.80;30.80;;;;;;5164959;28;20216;-59
2022/06/07 06:07:32;;;;;;;1.10;1.10;;;31.90;33.40;;;;;;5166017;28;20201;-59
2022/06/07 06:10:20;;;;;;;1.00;1.00;;;31.30;34.50;;;;;;5159104;28;20184;-58
2022/06/07 06:12:51;;;;;;;1.83;1.20;;;30.30;35.60;;;;;;5163256;28;20712;-57
2022/06/07 06:15:22;;;;;;;1.63;1.03;;;28.90;37.50;;;;;;5157797;28;20433;-56
2022/06/07 06:17:52;;;;;;;2.40;1.60;;;27.50;38.70;;;;;;5162094;28;20193;-57
2022/06/07 06:20:23;;;;;;;1.80;1.30;;;26.10;41.40;;;;;;5166443;28;20193;-57
2022/06/07 06:22:54;;;;;;;1.70;1.00;;;25.10;43.10;;;;;;5156894;28;20216;-57
2022/06/07 06:25:24;;;;;;;1.20;1.20;;;24.40;44.50;;;;;;5161472;28;20220;-57
2022/06/07 06:27:55;;;;;;;2.37;1.53;;;24.10;45.70;;;;;;5166312;28;20282;-57
2022/06/07 06:30:25;;;;;;;1.17;1.17;;;24.00;46.00;;;;;;5161246;28;20181;-57
2022/06/07 06:32:58;;;;;;;5.23;1.30;;;24.00;46.00;;;;;;5147928;28;20685;-57
2022/06/07 06:35:29;;;;;;;1.43;1.23;;;23.60;45.30;;;;;;5159223;28;20208;-58
2022/06/07 06:37:59;;;;;;;2.10;2.10;;;23.20;45.80;;;;;;5162340;28;20492;-57
2022/06/07 06:40:30;;;;;;;2.40;2.30;;;22.80;46.60;;;;;;5160912;28;20173;-57
2022/06/07 06:43:01;;;;;;;1.83;1.70;;;22.60;47.40;;;;;;5161976;28;20190;-57
2022/06/07 06:45:31;;;;;;;2.13;1.90;;;22.30;47.40;;;;;;5165034;28;20270;-57
2022/06/07 06:48:03;;;;;;;1.23;1.23;;;22.40;47.90;;;;;;5162384;28;20218;-57
2022/06/07 06:50:34;;;;;;;1.73;1.40;;;22.30;47.80;;;;;;5164831;28;20185;-57
2022/06/07 06:53:05;;;;;;;1.50;1.40;;;22.30;48.30;;;;;;5161402;28;20459;-57
2022/06/07 06:55:36;;;;;;;1.67;1.57;;;22.20;48.30;;;;;;5158524;28;20436;-58
2022/06/07 06:58:07;;;;;;;1.43;1.33;;;22.30;48.30;;;;;;5152600;28;20456;-59
2022/06/07 07:00:37;;;;;;;2.83;1.40;;;22.80;47.70;;;;;;5162662;28;20718;-58
2022/06/07 07:03:08;;;;;;;1.23;1.13;;;23.00;47.30;;;;;;5161673;28;20182;-58
2022/06/07 07:05:39;;;;;;;4.40;1.20;;;23.90;46.70;;;;;;5164981;28;20245;-57
2022/06/07 07:08:10;;;;;;;1.37;1.20;;;25.40;45.10;;;;;;5155024;28;20733;-58
2022/06/07 07:10:41;;;;;;;1.33;1.10;;;27.40;41.80;;;;;;5165093;28;20185;-58
2022/06/07 07:13:11;;;;;;;1.33;1.20;;;29.00;38.70;;;;;;5161460;28;20467;-58
2022/06/07 07:15:47;;;;;;;2.63;1.00;;;31.10;34.80;;;;;;5164904;28;20627;-57
2022/06/07 07:18:17;;;;;;;1.37;0.97;;;32.80;30.70;;;;;;5158584;28;20592;-58
2022/06/07 07:20:48;;;;;;;1.27;1.07;;;33.60;30.10;;;;;;5160196;28;20463;-59
2022/06/07 07:23:19;;;;;;;1.07;0.90;;;35.00;29.20;;;;;;5159013;28;20214;-59
2022/06/07 07:26:05;;;;;;;4.23;1.03;;;35.30;28.30;;;;;;5165628;28;20188;-59
2022/06/07 07:28:38;;;;;;;2.50;1.40;;;33.60;28.30;;;;;;5166733;28;20695;-60
2022/06/07 07:31:13;;;;;;;1.10;1.00;;;34.00;29.20;;;;;;5161695;28;20215;-59
2022/06/07 07:33:44;;;;;;;0.80;0.80;;;35.70;27.70;;;;;;5159702;28;20220;-60
2022/06/07 07:36:15;;;;;;;1.27;0.95;;;35.90;26.00;;;;;;5156036;28;20741;-59
2022/06/07 07:38:46;;;;;;;1.30;1.07;;;35.00;27.00;;;;;;5159380;28;20327;-58
2022/06/07 07:41:26;;;;;;;1.10;1.10;;;34.50;27.20;;;;;;5148751;28;20256;-59
2022/06/07 07:43:59;;;;;;;0.67;0.67;;;33.00;27.90;;;;;;5162434;28;20610;-59
2022/06/07 07:46:34;;;;;;;1.00;1.00;;;33.70;28.40;;;;;;5159391;28;20191;-59
2022/06/07 07:49:06;;;;;;;0.88;0.88;;;35.20;27.20;;;;;;5157259;28;20215;-60
2022/06/07 07:51:40;;;;;;;7.28;3.60;;;35.80;26.60;;;;;;5157204;28;20205;-59
2022/06/07 07:54:14;;;;;;;0.80;0.80;;;33.20;27.50;;;;;;5159427;28;20224;-60
2022/06/07 07:56:44;;;;;;;0.87;0.87;;;31.80;29.60;;;;;;5158227;28;20275;-59
2022/06/07 07:59:18;;;;;;;1.27;1.13;;;31.70;30.00;;;;;;5164054;28;20299;-57
2022/06/07 08:01:49;;;;;;;1.47;0.90;;;32.80;29.50;;;;;;5163799;28;20572;-58
2022/06/07 08:04:20;;;;;;;0.73;0.70;;;33.60;27.90;;;;;;5162625;28;20271;-57
2022/06/07 08:06:51;;;;;;;1.17;0.80;;;33.30;28.30;;;;;;5159791;28;20272;-59
2022/06/07 08:09:23;;;;;;;1.33;1.33;;;32.70;29.30;;;;;;5156383;28;20205;-59
2022/06/07 08:11:53;;;;;;;2.10;0.97;;;31.80;29.90;;;;;;5160680;28;20188;-58
2022/06/07 08:14:24;;;;;;;1.20;1.00;;;30.70;31.30;;;;;;5159562;28;20192;-58
2022/06/07 08:16:55;;;;;;;2.60;1.17;;;30.20;31.80;;;;;;5154208;28;20192;-58
2022/06/07 08:19:26;;;;;;;1.33;1.23;;;29.70;32.50;;;;;;5160995;28;20198;-59
2022/06/07 08:21:57;;;;;;;1.23;0.77;;;29.40;32.80;;;;;;5161647;28;20435;-58
2022/06/07 08:24:28;;;;;;;2.00;1.17;;;30.00;31.90;;;;;;5163726;28;20502;-59
2022/06/07 08:26:58;;;;;;;1.63;1.30;;;31.70;30.60;;;;;;5155781;28;20181;-59
2022/06/07 08:29:29;;;;;;;0.50;0.50;;;33.20;28.80;;;;;;5152394;28;20641;-59
2022/06/07 08:32:00;;;;;;;1.37;1.17;;;33.20;27.90;;;;;;5166137;28;20188;-59
2022/06/07 08:37:36;;;;;;;0.80;0.80;;;31.50;29.70;;;;;;5147220;28;20287;-57
2022/06/07 08:40:34;;;;;;;0.80;0.80;;;30.60;30.60;;;;;;5163037;28;20440;-59
2022/06/07 08:43:19;;;;;;;3.03;0.90;;;29.60;32.60;;;;;;5158800;28;20440;-58
2022/06/07 08:45:49;;;;;;;0.60;0.47;;;28.90;33.40;;;;;;5152502;28;20507;-58
2022/06/07 08:48:32;;;;;;;1.33;1.00;;;28.40;34.30;;;;;;5159694;28;20476;-58
2022/06/07 08:51:18;;;;;;;1.40;1.23;;;27.70;34.80;;;;;;5160990;28;20203;-58
2022/06/07 08:53:52;;;;;;;3.33;0.97;;;27.50;36.10;;;;;;5162720;28;20471;-57
2022/06/07 08:56:28;;;;;;;2.30;1.13;;;27.60;35.50;;;;;;5156254;28;20476;-58
2022/06/07 08:59:09;;;;;;;0.80;0.70;;;27.50;36.10;;;;;;5156196;28;20550;-58
2022/06/07 09:02:07;;;;;;;2.40;1.33;;;27.20;36.40;;;;;;5162757;28;20969;-58
2022/06/07 09:04:39;;;;;;;6.57;1.60;;;27.20;36.50;;;;;;5164610;28;20428;-59
2022/06/07 09:07:17;;;;;;;1.07;0.70;;;27.10;37.30;;;;;;5158411;28;20436;-57
2022/06/07 09:12:58;;;;;;;0.80;0.80;;;26.90;37.60;;;;;;5165820;28;20551;-58
2022/06/07 09:15:31;;;;;;;1.33;0.90;;;26.40;36.90;;;;;;5163258;28;20428;-58
2022/06/07 09:18:05;;;;;;;0.87;0.83;;;26.40;38.30;;;;;;5166160;28;20435;-58
2022/06/07 09:20:41;;;;;;;1.13;1.00;;;26.40;37.90;;;;;;5167531;28;20567;-58
2022/06/07 09:23:30;;;;;;;1.03;0.80;;;26.40;37.30;;;;;;5167787;28;20450;-56
2022/06/07 09:26:15;;;;;;;1.10;1.10;;;26.70;38.00;;;;;;5162091;28;20531;-58
2022/06/07 09:28:47;;;;;;;1.00;1.00;;;27.00;37.80;;;;;;5164309;28;20473;-58
2022/06/07 09:31:21;;;;;;;1.20;1.20;;;26.70;37.80;;;;;;5161494;28;20443;-58
2022/06/07 09:34:02;;;;;;;2.40;1.27;;;26.70;39.30;;;;;;5158918;28;20527;-58
2022/06/07 09:36:37;;;;;;;1.67;1.67;;;26.60;38.50;;;;;;5152372;28;20952;-58
2022/06/07 09:39:20;;;;;;;1.00;1.00;;;26.70;39.20;;;;;;5165072;28;20467;-56
2022/06/07 09:42:00;;;;;;;1.73;1.63;;;26.50;38.50;;;;;;5160448;28;20438;-56
2022/06/07 09:44:37;;;;;;;35.23;2.93;;;26.30;38.90;;;;;;5152355;28;20463;-57
2022/06/07 09:47:14;;;;;;;23.93;5.67;;;25.90;39.50;;;;;;5167223;28;20440;-54
2022/06/07 09:49:48;;;;;;;1.70;1.30;;;25.50;40.40;;;;;;5155815;28;20448;-56
2022/06/07 09:52:42;;;;;;;1.70;1.27;;;25.30;40.90;;;;;;5166235;28;20466;-54
2022/06/07 09:55:20;;;;;;;1.60;1.50;;;25.20;40.80;;;;;;5167048;28;20944;-55
2022/06/07 09:58:03;;;;;;;2.63;1.93;;;25.20;40.80;;;;;;5159103;28;20830;-54
2022/06/07 10:00:44;;;;;;;26.10;5.10;;;25.50;40.80;;;;;;5156929;28;20923;-54
2022/06/07 10:03:36;;;;;;;1.50;1.40;;;26.30;40.50;;;;;;5162508;28;20542;-55
2022/06/07 10:06:28;;;;;;;1.60;1.60;;;26.80;39.90;;;;;;5161335;28;20928;-57
2022/06/07 10:09:18;;;;;;;8.20;1.73;;;27.30;39.10;;;;;;5160141;28;20439;-55
2022/06/07 10:11:57;;;;;;;1.50;1.40;;;27.50;38.60;;;;;;5165977;28;20474;-54
2022/06/07 10:14:42;;;;;;;5.20;2.20;;;27.40;39.10;;;;;;5167632;28;20423;-55
2022/06/07 10:17:27;;;;;;;2.57;1.57;;;27.20;39.10;;;;;;5166425;28;20447;-53
2022/06/07 10:20:16;;;;;;;2.10;1.50;;;27.10;39.00;;;;;;5160808;28;20421;-55
2022/06/07 10:23:14;;;;;;;5.13;3.20;;;27.50;38.60;;;;;;5164225;28;20879;-57
2022/06/07 10:26:02;;;;;;;1.90;1.80;;;27.40;38.60;;;;;;5164453;28;20440;-55
2022/06/07 10:28:39;;;;;;;2.20;1.23;;;27.30;39.10;;;;;;5167706;28;21010;-56
2022/06/07 10:31:15;;;;;;;2.47;2.27;;;27.20;38.40;;;;;;5155946;28;20440;-55
2022/06/07 10:33:57;;;;;;;5.27;3.63;;;26.80;38.70;;;;;;5161780;28;20464;-55
2022/06/07 10:36:40;;;;;;;0.83;0.83;;;26.40;39.20;;;;;;5164196;28;20825;-54
2022/06/07 10:39:25;;;;;;;9.83;2.07;;;26.10;39.80;;;;;;5160530;28;20473;-55
2022/06/07 10:42:09;;;;;;;1.47;1.37;;;26.10;39.80;;;;;;5163616;28;20416;-55
2022/06/07 10:45:10;;;;;;;1.70;1.60;;;26.10;40.20;;;;;;5165024;28;20967;-55
2022/06/07 10:48:06;;;;;;;7.70;2.37;;;26.00;40.50;;;;;;5151554;28;20475;-55
2022/06/07 10:50:43;;;;;;;1.40;1.30;;;25.90;40.30;;;;;;5155093;28;20819;-55
2022/06/07 10:53:33;;;;;;;2.27;2.07;;;25.40;40.90;;;;;;5167247;28;20470;-55
2022/06/07 10:56:31;;;;;;;2.53;1.30;;;25.10;41.60;;;;;;5165691;28;20436;-55
2022/06/07 10:59:08;;;;;;;5.50;2.20;;;24.70;41.90;;;;;;5162108;28;20572;-55
2022/06/07 11:02:24;;;;;;;2.93;2.50;;;24.40;42.80;;;;;;5159139;28;20840;-54
2022/06/07 11:11:12;;;;;;;4.47;1.20;;;24.60;42.60;;;;;;5127857;28;20975;-56
2022/06/07 11:14:09;;;;;;;2.93;1.40;;;24.80;42.40;;;;;;5159502;28;20461;-56
2022/06/07 11:17:01;;;;;;;6.40;1.63;;;24.90;42.40;;;;;;5151623;28;20436;-56
2022/06/07 11:19:32;;;;;;;3.50;1.43;;;24.90;42.10;;;;;;5163637;28;20498;-56
2022/06/07 11:22:05;;;;;;;1.00;1.00;;;24.90;42.20;;;;;;5162084;28;20445;-57
2022/06/07 11:24:59;;;;;;;1.20;1.20;;;24.70;41.40;;;;;;5151636;28;20177;-54
2022/06/07 11:27:30;;;;;;;1.97;1.87;;;24.40;42.70;;;;;;5161221;28;20455;-57
2022/06/07 11:30:28;;;;;;;1.70;1.60;;;24.30;43.10;;;;;;5157920;28;20503;-58
2022/06/07 11:32:59;;;;;;;1.67;1.57;;;24.20;41.90;;;;;;5154958;28;20542;-55
2022/06/07 11:35:52;;;;;;;1.00;1.00;;;24.00;41.60;;;;;;5162895;28;20886;-56
2022/06/07 11:38:26;;;;;;;2.03;1.80;;;23.90;42.00;;;;;;5161344;28;20476;-56
2022/06/07 11:41:36;;;;;;;1.33;1.07;;;23.70;42.40;;;;;;5163897;28;20432;-58
2022/06/07 11:44:10;;;;;;;1.03;1.03;;;23.80;42.50;;;;;;5149565;28;20455;-55
2022/06/07 11:46:41;;;;;;;1.10;1.10;;;23.90;42.10;;;;;;5156900;28;20522;-55
2022/06/07 11:49:23;;;;;;;3.07;1.87;;;23.90;42.10;;;;;;5225121;22;20682;-50
2022/06/07 11:52:22;;;;;;;1.67;1.57;;;24.00;41.80;;;;;;5220905;28;20378;-51
2022/06/07 11:54:58;;;;;;;1.30;1.30;;;24.20;42.10;;;;;;5215254;28;20985;-51
2022/06/07 11:57:41;;;;;;;2.70;1.40;;;24.50;42.00;;;;;;5218544;28;20449;-52
2022/06/07 12:00:17;;;;;;;2.03;1.93;;;24.60;42.20;;;;;;5205054;28;20425;-56
2022/06/07 12:02:57;;;;;;;5.23;1.33;;;24.70;41.40;;;;;;5205092;28;20509;-52
2022/06/07 12:05:40;;;;;;;2.70;2.40;;;24.70;41.80;;;;;;5204929;28;20456;-51
2022/06/07 12:08:28;;;;;;;2.00;1.30;;;24.70;41.90;;;;;;5205789;28;20441;-52
2022/06/07 12:10:59;;;;;;;6.57;1.93;;;24.90;41.70;;;;;;5197052;28;20783;-52
2022/06/07 12:13:52;;;;;;;1.57;1.40;;;24.80;41.60;;;;;;5195681;28;20549;-52
2022/06/07 12:16:39;;;;;;;2.40;2.10;;;24.80;41.60;;;;;;5197050;28;20222;-52
2022/06/07 12:19:25;;;;;;;1.47;1.37;;;25.10;41.50;;;;;;5204866;28;20545;-52
2022/06/07 12:22:02;;;;;;;1.20;1.20;;;25.40;41.10;;;;;;5190144;28;20435;-53
2022/06/07 12:24:53;;;;;;;1.90;1.80;;;25.50;41.70;;;;;;5200888;28;20972;-51
2022/06/07 12:27:37;;;;;;;1.60;1.60;;;25.70;41.90;;;;;;5198371;28;20415;-52
2022/06/07 12:30:25;;;;;;;1.23;1.00;;;25.90;40.80;;;;;;5194502;28;20413;-52
2022/06/07 12:33:10;;;;;;;1.43;1.30;;;26.00;39.60;;;;;;5203156;28;20493;-51
2022/06/07 12:36:05;;;;;;;1.67;1.60;;;25.90;40.40;;;;;;5200693;28;20447;-52
2022/06/07 12:38:36;;;;;;;1.40;1.40;;;26.10;40.20;;;;;;5201779;28;21018;-52
2022/06/07 12:41:13;;;;;;;1.40;1.30;;;26.10;39.20;;;;;;5199953;28;20505;-52
2022/06/07 12:43:52;;;;;;;1.93;1.43;;;26.10;38.70;;;;;;5199041;28;20265;-51
2022/06/07 12:46:25;;;;;;;3.20;1.00;;;25.90;38.90;;;;;;5194054;28;20518;-52
2022/06/07 12:48:58;;;;;;;8.30;0.97;;;25.90;38.40;;;;;;5202382;28;20463;-55
2022/06/07 12:51:37;;;;;;;1.00;0.70;;;26.00;38.40;;;;;;5203872;28;20427;-53
2022/06/07 12:54:20;;;;;;;0.77;0.77;;;26.00;38.10;;;;;;5194217;28;20500;-52
2022/06/07 12:56:52;;;;;;;1.13;1.13;;;26.10;37.70;;;;;;5207820;28;20449;-52
2022/06/07 12:59:33;;;;;;;4.60;2.23;;;26.10;36.40;;;;;;5203802;28;20467;-52
2022/06/07 13:02:37;;;;;;;0.93;0.93;;;25.70;36.00;;;;;;5202641;28;20441;-52
2022/06/07 13:05:26;;;;;;;6.47;3.30;;;25.40;37.10;;;;;;5200399;28;20437;-51
2022/06/07 13:08:00;;;;;;;2.20;1.57;;;25.20;37.70;;;;;;5203681;28;20457;-53
2022/06/07 13:10:34;;;;;;;6.73;2.03;;;25.00;37.70;;;;;;5200738;28;20939;-51
2022/06/07 13:13:12;;;;;;;1.30;1.20;;;24.90;38.10;;;;;;5199455;28;20501;-52
2022/06/07 13:15:58;;;;;;;2.47;0.87;;;25.00;38.20;;;;;;5198109;28;20810;-50
2022/06/07 13:18:33;;;;;;;2.30;1.43;;;25.10;38.40;;;;;;5202275;28;20446;-52
2022/06/07 13:21:18;;;;;;;2.23;1.93;;;25.60;37.80;;;;;;5188652;28;20477;-52
2022/06/07 13:23:54;;;;;;;2.13;2.03;;;25.80;37.40;;;;;;5203013;28;20982;-51
2022/06/07 13:26:27;;;;;;;3.13;1.40;;;26.20;38.00;;;;;;5203228;28;20449;-51
2022/06/07 13:29:21;;;;;;;0.93;0.93;;;26.50;37.60;;;;;;5204014;28;20450;-51
2022/06/07 13:31:58;;;;;;;1.13;1.13;;;26.60;37.30;;;;;;5203356;28;20441;-52
2022/06/07 13:34:31;;;;;;;1.77;1.40;;;26.60;37.50;;;;;;5203130;28;20568;-53
2022/06/07 13:37:14;;;;;;;1.10;1.00;;;26.30;37.30;;;;;;5193294;28;20438;-52
2022/06/07 13:39:55;;;;;;;1.90;0.87;;;26.10;37.90;;;;;;5196690;28;20437;-51
2022/06/07 13:42:39;;;;;;;3.83;1.70;;;26.00;37.60;;;;;;5208860;28;20461;-52
2022/06/07 13:45:12;;;;;;;0.80;0.80;;;26.20;38.30;;;;;;5198686;28;20945;-53
2022/06/07 13:47:58;;;;;;;1.50;0.87;;;26.60;37.00;;;;;;5194010;28;20434;-52
2022/06/07 13:53:47;;;;;;;3.43;1.87;;;26.60;37.30;;;;;;5200372;28;20802;-53